Time;durP1;ratioP1;P1;durP2;ratioP2;P2;SDS_P1;SDS_P2;PMS_P1;PMS_P2;Temp;Humidity;BMP_temperature;BMP_pressure;BME280_temperature;BME280_humidity;BME280_pressure;Samples;Min_cycle;Max_cycle;Signal;HPM_P1;HPM_P2
2023/09/10 00:00:36;;;;;;;8.70;7.72;;;;;;;;;;5061661;28;20210;-77
2023/09/10 00:03:03;;;;;;;10.15;8.13;;;;;;;;;;5038382;28;20280;-76
2023/09/10 00:05:31;;;;;;;11.52;8.32;;;;;;;;;;5043544;28;20732;-77
2023/09/10 00:08:02;;;;;;;8.65;7.80;;;;;;;;;;5039143;28;20202;-76
2023/09/10 00:10:29;;;;;;;10.05;7.28;;;;;;;;;;5040243;28;20239;-76
2023/09/10 00:12:58;;;;;;;9.82;8.07;;;;;;;;;;5040247;28;20221;-78
2023/09/10 00:15:25;;;;;;;10.75;8.48;;;;;;;;;;5044134;28;20726;-77
2023/09/10 00:17:53;;;;;;;10.57;8.00;;;;;;;;;;5014548;28;20203;-76
2023/09/10 00:20:20;;;;;;;8.85;7.93;;;;;;;;;;5041664;28;20213;-77
2023/09/10 00:22:48;;;;;;;9.27;8.32;;;;;;;;;;5034787;28;20207;-77
2023/09/10 00:25:15;;;;;;;9.25;8.35;;;;;;;;;;5033732;28;20210;-75
2023/09/10 00:27:42;;;;;;;10.52;8.18;;;;;;;;;;5043778;28;20217;-76
2023/09/10 00:30:10;;;;;;;12.75;8.35;;;;;;;;;;5046075;28;20260;-76
2023/09/10 00:32:37;;;;;;;11.27;8.68;;;;;;;;;;5041223;28;20276;-76
2023/09/10 00:35:05;;;;;;;9.50;8.55;;;;;;;;;;5045462;28;20862;-76
2023/09/10 00:37:32;;;;;;;11.25;10.05;;;;;;;;;;5050000;28;20205;-77
2023/09/10 00:39:59;;;;;;;11.70;9.77;;;;;;;;;;5039581;28;20218;-77
2023/09/10 00:42:26;;;;;;;11.55;9.52;;;;;;;;;;5032992;28;20206;-77
2023/09/10 00:44:54;;;;;;;10.15;8.18;;;;;;;;;;5032450;28;20203;-77
2023/09/10 00:47:21;;;;;;;10.38;9.27;;;;;;;;;;5044728;28;20206;-76
2023/09/10 00:49:49;;;;;;;11.73;8.38;;;;;;;;;;5041945;28;20290;-76
2023/09/10 00:52:17;;;;;;;9.82;8.82;;;;;;;;;;5040808;28;20211;-76
2023/09/10 00:54:44;;;;;;;10.95;9.05;;;;;;;;;;5040989;28;20225;-77
2023/09/10 00:57:11;;;;;;;10.68;8.98;;;;;;;;;;5043961;28;20259;-77
2023/09/10 00:59:38;;;;;;;9.40;8.38;;;;;;;;;;5050149;28;20660;-75
2023/09/10 01:02:06;;;;;;;8.98;8.07;;;;;;;;;;5052538;28;20259;-77
2023/09/10 01:04:33;;;;;;;11.23;8.60;;;;;;;;;;5052168;28;20208;-77
2023/09/10 01:07:02;;;;;;;10.95;8.30;;;;;;;;;;5043884;28;20299;-77
2023/09/10 01:09:29;;;;;;;10.77;8.60;;;;;;;;;;5036905;28;20786;-77
2023/09/10 01:12:00;;;;;;;9.48;8.23;;;;;;;;;;5038877;28;20260;-76
2023/09/10 01:14:37;;;;;;;11.07;9.20;;;;;;;;;;5041816;28;20230;-77
2023/09/10 01:17:06;;;;;;;10.73;8.32;;;;;;;;;;5039931;28;20264;-78
2023/09/10 01:19:46;;;;;;;9.50;8.60;;;;;;;;;;5044938;28;20313;-77
2023/09/10 01:22:20;;;;;;;10.68;8.77;;;;;;;;;;5041537;28;20213;-76
2023/09/10 01:24:47;;;;;;;10.55;8.60;;;;;;;;;;5050104;28;20202;-78
2023/09/10 01:27:14;;;;;;;9.95;8.65;;;;;;;;;;5036404;28;20207;-77
2023/09/10 01:29:42;;;;;;;9.60;8.70;;;;;;;;;;5030698;28;20234;-77
2023/09/10 01:32:17;;;;;;;11.35;8.70;;;;;;;;;;5041026;28;20292;-78
2023/09/10 01:34:47;;;;;;;10.50;8.45;;;;;;;;;;5050529;28;20252;-77
2023/09/10 01:37:19;;;;;;;10.55;9.45;;;;;;;;;;5051053;28;20217;-77
2023/09/10 01:39:49;;;;;;;10.00;8.13;;;;;;;;;;5051548;28;20684;-77
2023/09/10 01:42:16;;;;;;;11.93;9.43;;;;;;;;;;5042615;28;20256;-77
2023/09/10 01:44:44;;;;;;;10.95;8.18;;;;;;;;;;5041473;28;20210;-77
2023/09/10 01:47:11;;;;;;;11.30;9.10;;;;;;;;;;5060724;28;20201;-78
2023/09/10 01:49:39;;;;;;;10.43;9.15;;;;;;;;;;5047981;28;20226;-78
2023/09/10 01:52:06;;;;;;;9.93;8.50;;;;;;;;;;5040202;28;20202;-78
2023/09/10 01:54:33;;;;;;;11.15;9.05;;;;;;;;;;5048149;28;20280;-78
2023/09/10 01:57:00;;;;;;;11.32;8.80;;;;;;;;;;5046244;28;20241;-78
2023/09/10 01:59:28;;;;;;;9.02;8.07;;;;;;;;;;5054317;28;20236;-79
2023/09/10 02:01:55;;;;;;;14.05;8.52;;;;;;;;;;5041676;28;20681;-77
2023/09/10 02:04:22;;;;;;;9.75;8.63;;;;;;;;;;5045276;28;20580;-76
2023/09/10 02:06:49;;;;;;;9.32;8.43;;;;;;;;;;5056905;28;20214;-78
2023/09/10 02:09:17;;;;;;;10.93;8.80;;;;;;;;;;5049109;28;20275;-78
2023/09/10 02:11:44;;;;;;;12.85;9.10;;;;;;;;;;5041091;28;20256;-77
2023/09/10 02:14:11;;;;;;;12.15;8.32;;;;;;;;;;5051912;28;20218;-76
2023/09/10 02:16:39;;;;;;;13.30;8.63;;;;;;;;;;5050290;28;20198;-78
2023/09/10 02:19:07;;;;;;;9.70;8.55;;;;;;;;;;5049016;28;20226;-77
2023/09/10 02:21:34;;;;;;;11.10;9.32;;;;;;;;;;5046534;28;20210;-75
2023/09/10 02:24:02;;;;;;;11.65;9.73;;;;;;;;;;5043356;28;20210;-78
2023/09/10 02:26:29;;;;;;;10.20;9.20;;;;;;;;;;5049564;28;20661;-76
2023/09/10 02:28:57;;;;;;;11.38;9.23;;;;;;;;;;5045859;28;20641;-76
2023/09/10 02:31:25;;;;;;;12.77;9.38;;;;;;;;;;5038855;28;20203;-77
2023/09/10 02:34:00;;;;;;;10.73;9.57;;;;;;;;;;5045978;28;20229;-77
2023/09/10 02:36:28;;;;;;;11.20;9.68;;;;;;;;;;5044075;28;20210;-78
2023/09/10 02:38:55;;;;;;;10.90;9.77;;;;;;;;;;5046728;28;20470;-76
2023/09/10 02:41:22;;;;;;;11.13;9.80;;;;;;;;;;5051382;28;20211;-77
2023/09/10 02:43:49;;;;;;;11.73;9.38;;;;;;;;;;5049714;28;20665;-77
2023/09/10 02:46:16;;;;;;;10.18;9.13;;;;;;;;;;5054995;28;20214;-77
2023/09/10 02:48:44;;;;;;;11.35;10.30;;;;;;;;;;5053396;28;20719;-76
2023/09/10 02:51:11;;;;;;;13.50;10.40;;;;;;;;;;5042968;28;20202;-78
2023/09/10 02:53:38;;;;;;;11.65;10.43;;;;;;;;;;5073497;22;20283;-77
2023/09/10 02:56:06;;;;;;;12.15;10.95;;;;;;;;;;5068940;28;20202;-79
2023/09/10 02:58:33;;;;;;;11.27;10.25;;;;;;;;;;5073734;28;20654;-77
2023/09/10 03:01:04;;;;;;;11.85;10.57;;;;;;;;;;5077371;22;20230;-79
2023/09/10 03:03:35;;;;;;;14.50;11.70;;;;;;;;;;5034828;28;20741;-78
2023/09/10 03:06:02;;;;;;;9.75;8.75;;;;;;;;;;5045745;28;20206;-79
2023/09/10 03:08:35;;;;;;;12.77;9.85;;;;;;;;;;5053004;28;20555;-79
2023/09/10 03:11:04;;;;;;;14.15;9.38;;;;;;;;;;5048320;28;20206;-79
2023/09/10 03:13:31;;;;;;;10.48;9.38;;;;;;;;;;5052554;28;20366;-79
2023/09/10 03:15:59;;;;;;;11.90;10.35;;;;;;;;;;5052101;28;20769;-79
2023/09/10 03:18:26;;;;;;;11.15;10.05;;;;;;;;;;5043979;28;20205;-76
2023/09/10 03:20:54;;;;;;;13.35;11.00;;;;;;;;;;5045389;28;20637;-78
2023/09/10 03:23:22;;;;;;;11.05;10.00;;;;;;;;;;5052134;28;20678;-78
2023/09/10 03:25:49;;;;;;;10.95;9.93;;;;;;;;;;5051894;28;20206;-77
2023/09/10 03:28:16;;;;;;;10.70;9.50;;;;;;;;;;5045530;28;20249;-78
2023/09/10 03:30:44;;;;;;;11.98;9.70;;;;;;;;;;5051270;28;20210;-77
2023/09/10 03:33:11;;;;;;;10.25;9.25;;;;;;;;;;5052183;28;20222;-77
2023/09/10 03:35:38;;;;;;;13.52;9.90;;;;;;;;;;5045013;28;20254;-79
2023/09/10 03:38:05;;;;;;;13.02;11.02;;;;;;;;;;5041659;28;20198;-78
2023/09/10 03:40:33;;;;;;;12.93;11.63;;;;;;;;;;5042902;28;20206;-78
2023/09/10 03:43:00;;;;;;;13.27;11.88;;;;;;;;;;5024769;28;20229;-76
2023/09/10 03:45:27;;;;;;;14.77;13.23;;;;;;;;;;5048921;28;20206;-78
2023/09/10 03:47:54;;;;;;;14.98;13.48;;;;;;;;;;5044344;28;20256;-78
2023/09/10 03:50:22;;;;;;;14.70;13.07;;;;;;;;;;5048847;28;20229;-79
2023/09/10 03:52:49;;;;;;;14.85;13.45;;;;;;;;;;5049590;28;20226;-77
2023/09/10 03:55:16;;;;;;;15.05;13.30;;;;;;;;;;5047042;28;20704;-78
2023/09/10 03:57:43;;;;;;;14.02;12.70;;;;;;;;;;5049336;28;20245;-79
2023/09/10 04:00:11;;;;;;;15.10;13.68;;;;;;;;;;5046281;28;20276;-79
2023/09/10 04:02:38;;;;;;;15.18;13.65;;;;;;;;;;5050505;28;20671;-78
2023/09/10 04:05:06;;;;;;;14.70;13.30;;;;;;;;;;5050536;28;20202;-76
2023/09/10 04:07:33;;;;;;;15.70;14.20;;;;;;;;;;5024832;28;20202;-77
2023/09/10 04:10:00;;;;;;;14.85;13.45;;;;;;;;;;5024408;28;20203;-78
2023/09/10 04:12:28;;;;;;;13.32;11.93;;;;;;;;;;5041866;28;20312;-77
2023/09/10 04:14:55;;;;;;;13.77;12.38;;;;;;;;;;5033710;28;20226;-79
2023/09/10 04:17:22;;;;;;;13.55;12.15;;;;;;;;;;5051322;28;20224;-78
2023/09/10 04:19:49;;;;;;;13.30;12.00;;;;;;;;;;5050825;28;20289;-79
2023/09/10 04:22:17;;;;;;;14.13;12.80;;;;;;;;;;5044694;28;20230;-77
2023/09/10 04:24:44;;;;;;;14.60;13.07;;;;;;;;;;5033399;28;20202;-78
2023/09/10 04:27:11;;;;;;;14.45;13.05;;;;;;;;;;5044556;28;20202;-79
2023/09/10 04:29:38;;;;;;;13.73;12.52;;;;;;;;;;5050859;28;20210;-80
2023/09/10 04:32:05;;;;;;;14.00;12.73;;;;;;;;;;5041980;28;20225;-79
2023/09/10 04:34:33;;;;;;;14.77;13.10;;;;;;;;;;5049947;28;20233;-78
2023/09/10 04:37:02;;;;;;;14.10;12.75;;;;;;;;;;5044422;28;20206;-78
2023/09/10 04:39:29;;;;;;;14.60;13.20;;;;;;;;;;5044543;28;20206;-79
2023/09/10 04:41:56;;;;;;;14.18;12.77;;;;;;;;;;5033258;28;20257;-78
2023/09/10 04:44:23;;;;;;;13.95;12.65;;;;;;;;;;5051167;28;20778;-78
2023/09/10 04:46:51;;;;;;;14.43;12.65;;;;;;;;;;5032659;28;20264;-78
2023/09/10 04:49:18;;;;;;;14.30;12.70;;;;;;;;;;5050134;28;20217;-79
2023/09/10 04:51:45;;;;;;;14.68;13.27;;;;;;;;;;5032365;28;20259;-77
2023/09/10 04:54:12;;;;;;;14.25;12.77;;;;;;;;;;5059969;28;20464;-78
2023/09/10 04:56:39;;;;;;;14.30;12.70;;;;;;;;;;5050432;28;20270;-79
2023/09/10 04:59:07;;;;;;;15.38;13.77;;;;;;;;;;5050644;28;20715;-78
2023/09/10 05:01:34;;;;;;;14.55;13.15;;;;;;;;;;5032733;28;20232;-79
2023/09/10 05:04:02;;;;;;;13.95;12.40;;;;;;;;;;5044205;28;20732;-78
2023/09/10 05:06:29;;;;;;;14.10;12.70;;;;;;;;;;5050225;28;20665;-78
2023/09/10 05:08:56;;;;;;;12.90;11.60;;;;;;;;;;5044622;28;20206;-79
2023/09/10 05:11:24;;;;;;;13.77;12.35;;;;;;;;;;5029370;28;20625;-77
2023/09/10 05:13:51;;;;;;;12.38;11.20;;;;;;;;;;5048020;28;20226;-77
2023/09/10 05:16:19;;;;;;;12.20;10.85;;;;;;;;;;5045290;28;20697;-78
2023/09/10 05:18:47;;;;;;;12.63;11.43;;;;;;;;;;5048827;28;20248;-77
2023/09/10 05:21:15;;;;;;;14.55;12.35;;;;;;;;;;5045219;28;20210;-78
2023/09/10 05:23:42;;;;;;;13.40;11.98;;;;;;;;;;5050307;28;20778;-77
2023/09/10 05:26:09;;;;;;;14.55;11.88;;;;;;;;;;5050212;28;20202;-78
2023/09/10 05:28:36;;;;;;;32.00;24.67;;;;;;;;;;5042762;28;20716;-77
2023/09/10 05:31:05;;;;;;;17.50;15.10;;;;;;;;;;5042233;28;20212;-78
2023/09/10 05:33:33;;;;;;;15.55;13.95;;;;;;;;;;5042061;28;20226;-79
2023/09/10 05:36:00;;;;;;;14.10;12.75;;;;;;;;;;5050216;28;20234;-79
2023/09/10 05:38:28;;;;;;;15.68;14.07;;;;;;;;;;5050238;28;20263;-79
2023/09/10 05:41:00;;;;;;;15.18;13.55;;;;;;;;;;5032566;28;20214;-78
2023/09/10 05:43:31;;;;;;;15.02;13.68;;;;;;;;;;5025058;28;20272;-78
2023/09/10 05:45:58;;;;;;;15.45;14.00;;;;;;;;;;5044705;28;20206;-77
2023/09/10 05:48:26;;;;;;;15.45;14.05;;;;;;;;;;5044273;28;20221;-77
2023/09/10 05:50:57;;;;;;;15.38;13.75;;;;;;;;;;5046701;28;20209;-78
2023/09/10 05:53:24;;;;;;;16.20;14.63;;;;;;;;;;5044601;28;20602;-77
2023/09/10 05:55:52;;;;;;;14.90;13.38;;;;;;;;;;5046671;28;20222;-78
2023/09/10 05:58:19;;;;;;;14.77;13.35;;;;;;;;;;5026927;28;20213;-77
2023/09/10 06:00:46;;;;;;;14.63;13.23;;;;;;;;;;5051167;28;20222;-78
2023/09/10 06:03:14;;;;;;;15.20;13.02;;;;;;;;;;5038929;28;20235;-77
2023/09/10 06:05:41;;;;;;;14.70;12.75;;;;;;;;;;5049793;28;20213;-78
2023/09/10 06:08:08;;;;;;;14.40;12.90;;;;;;;;;;5044415;28;20210;-78
2023/09/10 06:10:35;;;;;;;13.43;12.02;;;;;;;;;;5049652;28;20214;-78
2023/09/10 06:13:03;;;;;;;14.30;12.88;;;;;;;;;;5026725;28;20237;-77
2023/09/10 06:15:32;;;;;;;16.80;15.10;;;;;;;;;;5044333;28;20279;-77
2023/09/10 06:17:59;;;;;;;16.73;15.10;;;;;;;;;;5053062;28;20210;-77
2023/09/10 06:20:26;;;;;;;15.10;13.70;;;;;;;;;;5043056;28;20202;-78
2023/09/10 06:22:56;;;;;;;15.18;13.88;;;;;;;;;;5048024;28;20226;-78
2023/09/10 06:25:24;;;;;;;16.30;14.68;;;;;;;;;;5053350;28;20206;-78
2023/09/10 06:27:51;;;;;;;18.38;16.58;;;;;;;;;;5052552;28;20210;-78
2023/09/10 06:30:19;;;;;;;18.27;16.38;;;;;;;;;;5048358;28;20210;-78
2023/09/10 06:32:51;;;;;;;17.02;15.32;;;;;;;;;;5053163;28;20311;-76
2023/09/10 06:35:18;;;;;;;16.13;14.55;;;;;;;;;;5051364;28;20213;-78
2023/09/10 06:37:48;;;;;;;17.17;15.57;;;;;;;;;;5047967;28;20214;-78
2023/09/10 06:40:15;;;;;;;17.73;15.95;;;;;;;;;;5043313;28;20206;-78
2023/09/10 06:42:42;;;;;;;17.35;15.52;;;;;;;;;;5052925;28;20283;-78
2023/09/10 06:45:12;;;;;;;16.40;14.75;;;;;;;;;;5052782;28;20684;-78
2023/09/10 06:47:39;;;;;;;17.08;15.25;;;;;;;;;;5053054;28;20210;-78
2023/09/10 06:50:06;;;;;;;16.30;14.75;;;;;;;;;;5035114;28;20564;-77
2023/09/10 06:52:34;;;;;;;17.10;15.30;;;;;;;;;;5053176;28;20279;-78
2023/09/10 06:55:02;;;;;;;16.17;14.57;;;;;;;;;;5030043;28;20291;-73
2023/09/10 06:57:30;;;;;;;16.73;15.05;;;;;;;;;;5052648;28;20206;-77
2023/09/10 06:59:58;;;;;;;16.05;14.55;;;;;;;;;;5053035;28;20202;-78
2023/09/10 07:02:25;;;;;;;16.98;15.38;;;;;;;;;;5042938;28;20308;-76
2023/09/10 07:04:53;;;;;;;15.73;14.30;;;;;;;;;;5049114;28;20202;-78
2023/09/10 07:07:20;;;;;;;16.80;15.00;;;;;;;;;;5048069;28;20202;-78
2023/09/10 07:09:47;;;;;;;16.65;15.15;;;;;;;;;;5035441;28;20210;-78
2023/09/10 07:12:14;;;;;;;16.25;14.77;;;;;;;;;;5049160;28;21029;-76
2023/09/10 07:14:43;;;;;;;17.45;15.27;;;;;;;;;;5046264;28;20652;-78
2023/09/10 07:17:11;;;;;;;15.18;13.77;;;;;;;;;;5047003;28;20205;-77
2023/09/10 07:19:40;;;;;;;17.15;15.52;;;;;;;;;;5047684;28;20252;-79
2023/09/10 07:22:07;;;;;;;14.98;13.63;;;;;;;;;;5052176;28;20222;-78
2023/09/10 07:24:35;;;;;;;15.35;13.88;;;;;;;;;;5052227;28;20213;-77
2023/09/10 07:27:02;;;;;;;15.00;13.57;;;;;;;;;;5052076;28;20237;-77
2023/09/10 07:29:30;;;;;;;14.48;13.07;;;;;;;;;;5052703;28;20210;-78
2023/09/10 07:31:57;;;;;;;14.10;12.80;;;;;;;;;;5042870;28;20257;-78
2023/09/10 07:34:24;;;;;;;15.48;13.88;;;;;;;;;;5052104;28;20202;-78
2023/09/10 07:36:51;;;;;;;13.18;11.90;;;;;;;;;;5030779;28;20226;-78
2023/09/10 07:39:22;;;;;;;13.02;11.93;;;;;;;;;;5047801;28;20608;-78
2023/09/10 07:41:49;;;;;;;13.02;11.80;;;;;;;;;;5029619;28;20198;-78
2023/09/10 07:44:16;;;;;;;14.30;13.00;;;;;;;;;;5049593;28;20221;-78
2023/09/10 07:46:43;;;;;;;13.07;11.77;;;;;;;;;;5050339;28;20242;-77
2023/09/10 07:49:11;;;;;;;12.25;11.15;;;;;;;;;;5051470;28;20201;-79
2023/09/10 07:51:39;;;;;;;12.57;11.38;;;;;;;;;;5030963;28;20630;-78
2023/09/10 07:54:06;;;;;;;13.50;12.10;;;;;;;;;;5051318;28;20206;-76
2023/09/10 07:56:33;;;;;;;13.40;12.10;;;;;;;;;;5033091;28;20226;-77
2023/09/10 07:59:01;;;;;;;11.98;10.93;;;;;;;;;;5051549;28;20221;-77
2023/09/10 08:01:28;;;;;;;11.63;10.48;;;;;;;;;;5053717;28;20226;-77
2023/09/10 08:03:55;;;;;;;11.88;10.80;;;;;;;;;;5047093;28;20218;-77
2023/09/10 08:06:23;;;;;;;11.70;10.48;;;;;;;;;;5047421;28;20585;-77
2023/09/10 08:08:51;;;;;;;10.93;9.93;;;;;;;;;;5051595;28;20209;-75
2023/09/10 08:11:18;;;;;;;11.95;10.88;;;;;;;;;;5047884;28;20203;-77
2023/09/10 08:13:45;;;;;;;11.48;10.27;;;;;;;;;;5050342;28;20230;-77
2023/09/10 08:16:14;;;;;;;11.50;10.50;;;;;;;;;;5050803;28;20225;-77
2023/09/10 08:18:42;;;;;;;10.35;9.45;;;;;;;;;;5043949;28;20807;-77
2023/09/10 08:21:09;;;;;;;12.63;11.43;;;;;;;;;;5050886;28;20198;-75
2023/09/10 08:23:37;;;;;;;11.27;10.25;;;;;;;;;;5046776;28;20222;-77
2023/09/10 08:26:04;;;;;;;11.13;10.23;;;;;;;;;;5048878;28;20272;-77
2023/09/10 08:28:31;;;;;;;11.73;10.63;;;;;;;;;;5050796;28;20217;-78
2023/09/10 08:30:58;;;;;;;10.70;9.60;;;;;;;;;;5050969;28;20217;-78
2023/09/10 08:33:26;;;;;;;10.30;9.40;;;;;;;;;;5053684;28;20268;-78
2023/09/10 08:35:54;;;;;;;10.00;9.10;;;;;;;;;;5033255;28;20226;-78
2023/09/10 08:38:22;;;;;;;9.60;8.68;;;;;;;;;;5046523;28;20248;-78
2023/09/10 08:40:55;;;;;;;9.80;9.00;;;;;;;;;;5050339;28;20225;-77
2023/09/10 08:43:42;;;;;;;11.63;9.77;;;;;;;;;;5032999;28;20225;-75
2023/09/10 08:46:10;;;;;;;11.57;10.32;;;;;;;;;;5048681;28;20202;-78
2023/09/10 08:48:40;;;;;;;10.02;9.13;;;;;;;;;;5050170;28;20216;-78
2023/09/10 08:51:15;;;;;;;9.45;8.65;;;;;;;;;;5051986;28;20194;-78
2023/09/10 08:53:43;;;;;;;9.80;8.90;;;;;;;;;;5050076;28;20794;-79
2023/09/10 08:56:10;;;;;;;10.35;9.40;;;;;;;;;;5066261;23;20236;-75
2023/09/10 08:58:38;;;;;;;9.82;8.52;;;;;;;;;;5069654;28;20280;-75
2023/09/10 09:01:08;;;;;;;9.27;8.40;;;;;;;;;;5071691;22;20238;-79
2023/09/10 09:03:37;;;;;;;9.10;8.15;;;;;;;;;;5044497;28;20195;-78
2023/09/10 09:06:05;;;;;;;8.70;7.90;;;;;;;;;;5046071;28;20212;-79
2023/09/10 09:08:35;;;;;;;8.93;8.23;;;;;;;;;;5052030;28;20352;-80
2023/09/10 09:11:06;;;;;;;8.65;7.90;;;;;;;;;;5050269;28;20313;-79
2023/09/10 09:13:35;;;;;;;11.52;9.10;;;;;;;;;;5050340;28;20260;-80
2023/09/10 09:16:05;;;;;;;9.38;8.30;;;;;;;;;;5031252;28;20221;-79
2023/09/10 09:18:35;;;;;;;8.65;7.90;;;;;;;;;;5047316;28;20198;-79
2023/09/10 09:21:25;;;;;;;8.25;7.65;;;;;;;;;;5045366;28;20218;-80
2023/09/10 09:23:53;;;;;;;8.60;7.70;;;;;;;;;;5046501;28;20207;-81
2023/09/10 09:26:22;;;;;;;8.90;8.10;;;;;;;;;;5050347;28;20618;-81
2023/09/10 09:28:51;;;;;;;8.35;7.65;;;;;;;;;;5046020;28;20592;-79
2023/09/10 09:31:21;;;;;;;7.68;6.88;;;;;;;;;;5050347;28;20240;-79
2023/09/10 09:33:48;;;;;;;7.40;6.75;;;;;;;;;;5033176;28;20202;-81
2023/09/10 09:36:17;;;;;;;7.53;6.93;;;;;;;;;;5028833;28;20317;-79
2023/09/10 09:38:46;;;;;;;8.57;7.28;;;;;;;;;;5032403;28;20224;-80
2023/09/10 09:41:17;;;;;;;7.78;7.07;;;;;;;;;;5046566;28;20938;-80
2023/09/10 09:43:46;;;;;;;7.35;6.75;;;;;;;;;;5043472;28;20894;-79
2023/09/10 09:46:17;;;;;;;7.40;6.72;;;;;;;;;;5048634;28;20285;-80
2023/09/10 09:48:44;;;;;;;7.50;6.70;;;;;;;;;;5045626;28;20210;-79
2023/09/10 09:51:14;;;;;;;6.53;5.90;;;;;;;;;;5050154;28;20309;-78
2023/09/10 09:53:44;;;;;;;6.18;5.57;;;;;;;;;;5036955;28;20286;-80
2023/09/10 09:56:12;;;;;;;6.30;5.70;;;;;;;;;;5047576;28;20309;-78
2023/09/10 09:58:40;;;;;;;7.50;5.20;;;;;;;;;;5055701;28;20198;-79
2023/09/10 10:01:08;;;;;;;8.50;7.70;;;;;;;;;;5052403;28;20337;-79
2023/09/10 10:03:37;;;;;;;16.17;13.23;;;;;;;;;;5052423;28;20248;-78
2023/09/10 10:06:04;;;;;;;12.43;10.90;;;;;;;;;;5052799;28;20206;-79
2023/09/10 10:08:32;;;;;;;6.80;5.38;;;;;;;;;;5051206;28;20217;-80
2023/09/10 10:11:00;;;;;;;5.63;5.13;;;;;;;;;;5050393;28;20230;-80
2023/09/10 10:13:30;;;;;;;5.80;5.30;;;;;;;;;;5046720;28;20205;-79
2023/09/10 10:15:57;;;;;;;8.38;6.70;;;;;;;;;;5054047;28;20222;-80
2023/09/10 10:18:26;;;;;;;7.65;6.95;;;;;;;;;;5035511;28;20210;-79
2023/09/10 10:20:58;;;;;;;6.90;6.10;;;;;;;;;;5049973;28;20222;-80
2023/09/10 10:23:26;;;;;;;9.45;7.50;;;;;;;;;;5032110;28;20324;-78
2023/09/10 10:25:54;;;;;;;9.63;8.38;;;;;;;;;;5035214;28;20206;-78
2023/09/10 10:28:21;;;;;;;8.77;7.88;;;;;;;;;;5046673;28;20214;-79
2023/09/10 10:30:51;;;;;;;11.70;10.30;;;;;;;;;;5049987;28;20222;-79
2023/09/10 10:33:20;;;;;;;7.88;6.90;;;;;;;;;;5037787;28;20236;-80
2023/09/10 10:35:59;;;;;;;8.32;7.47;;;;;;;;;;5031948;28;20203;-79
2023/09/10 10:38:30;;;;;;;8.93;7.93;;;;;;;;;;5052874;28;20751;-78
2023/09/10 10:40:58;;;;;;;7.75;6.97;;;;;;;;;;5035510;28;20218;-78
2023/09/10 10:43:29;;;;;;;7.50;6.75;;;;;;;;;;5050055;28;20248;-78
2023/09/10 10:46:01;;;;;;;8.15;7.38;;;;;;;;;;5043574;28;20210;-80
2023/09/10 10:48:30;;;;;;;7.82;7.10;;;;;;;;;;5039376;28;20229;-79
2023/09/10 10:51:00;;;;;;;6.85;6.15;;;;;;;;;;5048994;28;20222;-77
2023/09/10 10:53:29;;;;;;;8.05;7.35;;;;;;;;;;5052635;28;20206;-81
2023/09/10 10:56:03;;;;;;;7.70;6.90;;;;;;;;;;5052695;28;20217;-79
2023/09/10 10:58:34;;;;;;;7.68;6.97;;;;;;;;;;5046802;28;20639;-79
2023/09/10 11:01:03;;;;;;;7.13;6.47;;;;;;;;;;5031580;28;20751;-79
2023/09/10 11:03:32;;;;;;;6.82;6.25;;;;;;;;;;5049468;28;20226;-78
2023/09/10 11:06:07;;;;;;;8.63;6.38;;;;;;;;;;5034730;28;20229;-81
2023/09/10 11:08:38;;;;;;;6.90;6.30;;;;;;;;;;5033389;28;20671;-78
2023/09/10 11:11:08;;;;;;;8.30;7.43;;;;;;;;;;5052282;28;20651;-79
2023/09/10 11:13:54;;;;;;;7.88;7.00;;;;;;;;;;5049532;28;20294;-79
2023/09/10 11:16:22;;;;;;;7.47;5.72;;;;;;;;;;5049384;28;20719;-79
2023/09/10 11:18:51;;;;;;;7.70;5.88;;;;;;;;;;5052603;28;20198;-81
2023/09/10 11:21:20;;;;;;;5.70;5.20;;;;;;;;;;5028988;28;20222;-80
2023/09/10 11:23:47;;;;;;;9.43;8.25;;;;;;;;;;5051779;28;20206;-80
2023/09/10 11:26:15;;;;;;;6.40;5.15;;;;;;;;;;5029767;28;20624;-79
2023/09/10 11:28:50;;;;;;;6.50;5.75;;;;;;;;;;5052527;28;20623;-80
2023/09/10 11:31:46;;;;;;;6.10;5.25;;;;;;;;;;5033991;28;20226;-78
2023/09/10 11:36:47;;;;;;;6.07;5.53;;;;;;;;;;5049177;28;20254;-81
2023/09/10 11:39:16;;;;;;;5.93;5.40;;;;;;;;;;5051843;28;20201;-80
2023/09/10 11:41:46;;;;;;;5.68;5.15;;;;;;;;;;5054539;28;20245;-81
2023/09/10 11:44:13;;;;;;;6.10;5.50;;;;;;;;;;5048434;28;20311;-79
2023/09/10 11:46:46;;;;;;;6.40;5.88;;;;;;;;;;5058746;28;20206;-80
2023/09/10 11:49:14;;;;;;;6.25;5.63;;;;;;;;;;5051822;28;20523;-80
2023/09/10 11:51:45;;;;;;;6.35;5.80;;;;;;;;;;5051474;28;20225;-79
2023/09/10 11:54:17;;;;;;;11.52;9.50;;;;;;;;;;5045462;28;20214;-78
2023/09/10 11:56:45;;;;;;;7.13;6.50;;;;;;;;;;5049217;28;20779;-79
2023/09/10 11:59:23;;;;;;;6.70;6.03;;;;;;;;;;5054466;28;20213;-81
2023/09/10 12:01:55;;;;;;;6.45;5.72;;;;;;;;;;5043268;28;20238;-82
2023/09/10 12:04:29;;;;;;;6.97;6.32;;;;;;;;;;5031432;28;20212;-81
2023/09/10 12:06:59;;;;;;;6.28;5.70;;;;;;;;;;5043549;28;20629;-79
2023/09/10 12:09:30;;;;;;;7.00;6.25;;;;;;;;;;5051214;28;20206;-79
2023/09/10 12:12:03;;;;;;;6.18;5.65;;;;;;;;;;5047331;28;20224;-80
2023/09/10 12:14:32;;;;;;;6.05;5.53;;;;;;;;;;5050671;28;20209;-81
2023/09/10 12:16:59;;;;;;;6.40;5.90;;;;;;;;;;5050941;28;20225;-79
2023/09/10 12:19:27;;;;;;;6.53;5.93;;;;;;;;;;5033446;28;20691;-80
2023/09/10 12:21:56;;;;;;;7.28;5.43;;;;;;;;;;5051564;28;20751;-78
2023/09/10 12:24:24;;;;;;;6.15;5.55;;;;;;;;;;5052045;28;20202;-81
2023/09/10 12:26:51;;;;;;;6.90;5.88;;;;;;;;;;5051128;28;20202;-80
2023/09/10 12:29:19;;;;;;;7.93;6.05;;;;;;;;;;5051782;28;20237;-80
2023/09/10 12:31:52;;;;;;;7.43;6.43;;;;;;;;;;5054344;28;20222;-79
2023/09/10 12:34:22;;;;;;;8.25;6.22;;;;;;;;;;5048854;28;20290;-80
2023/09/10 12:36:50;;;;;;;7.45;5.95;;;;;;;;;;5048423;28;20228;-79
2023/09/10 12:39:20;;;;;;;6.78;6.18;;;;;;;;;;5051489;28;20213;-82
2023/09/10 12:41:48;;;;;;;6.00;5.50;;;;;;;;;;5051014;28;20719;-80
2023/09/10 12:44:18;;;;;;;6.13;5.57;;;;;;;;;;5029856;28;20289;-79
2023/09/10 12:46:46;;;;;;;7.30;6.07;;;;;;;;;;5049569;28;20292;-78
2023/09/10 12:49:15;;;;;;;6.90;6.20;;;;;;;;;;5044800;28;20219;-80
2023/09/10 12:51:42;;;;;;;6.35;5.85;;;;;;;;;;5048092;28;20233;-80
2023/09/10 12:54:10;;;;;;;7.45;6.57;;;;;;;;;;5050690;28;20220;-79
2023/09/10 12:56:41;;;;;;;7.10;6.43;;;;;;;;;;5050019;28;20773;-80
2023/09/10 12:59:09;;;;;;;8.68;6.15;;;;;;;;;;5050858;28;20198;-80
2023/09/10 13:01:41;;;;;;;6.65;6.15;;;;;;;;;;5048514;28;20230;-79
2023/09/10 13:04:08;;;;;;;7.00;6.40;;;;;;;;;;5028446;28;20279;-80
2023/09/10 13:06:38;;;;;;;6.90;6.20;;;;;;;;;;5010971;28;20206;-79
2023/09/10 13:09:06;;;;;;;10.07;6.85;;;;;;;;;;5030618;28;20297;-80
2023/09/10 13:11:34;;;;;;;6.80;6.18;;;;;;;;;;5027915;28;20223;-80
2023/09/10 13:14:02;;;;;;;6.85;6.25;;;;;;;;;;5028182;28;20729;-80
2023/09/10 13:16:31;;;;;;;9.13;6.35;;;;;;;;;;5012063;28;20302;-81
2023/09/10 13:19:00;;;;;;;6.82;6.15;;;;;;;;;;5030677;28;20199;-79
2023/09/10 13:21:29;;;;;;;6.63;6.03;;;;;;;;;;5030255;28;20392;-79
2023/09/10 13:23:57;;;;;;;6.43;5.93;;;;;;;;;;5031125;28;20225;-78
2023/09/10 13:26:24;;;;;;;6.85;6.25;;;;;;;;;;5029476;28;20224;-78
2023/09/10 13:28:53;;;;;;;6.65;5.85;;;;;;;;;;5030212;28;20691;-78
2023/09/10 13:31:22;;;;;;;6.53;5.93;;;;;;;;;;5028706;28;20219;-79
2023/09/10 13:33:51;;;;;;;7.03;6.15;;;;;;;;;;5030373;28;20202;-80
2023/09/10 13:36:20;;;;;;;7.00;6.03;;;;;;;;;;5012485;28;20230;-79
2023/09/10 13:38:49;;;;;;;9.02;6.32;;;;;;;;;;5013021;28;20290;-79
2023/09/10 13:41:17;;;;;;;6.80;6.13;;;;;;;;;;5012827;28;20254;-79
2023/09/10 13:43:45;;;;;;;7.45;6.25;;;;;;;;;;5030325;28;20213;-80
2023/09/10 13:46:12;;;;;;;6.40;5.82;;;;;;;;;;5030465;28;20242;-81
2023/09/10 13:48:42;;;;;;;8.40;7.32;;;;;;;;;;5012994;28;20199;-78
2023/09/10 13:51:12;;;;;;;12.27;8.55;;;;;;;;;;5029946;28;20613;-80
2023/09/10 13:53:43;;;;;;;12.52;8.90;;;;;;;;;;5026337;28;20725;-80
2023/09/10 13:56:12;;;;;;;13.98;8.90;;;;;;;;;;5013327;28;20205;-79
2023/09/10 13:58:39;;;;;;;6.38;5.80;;;;;;;;;;5026735;28;20224;-80
2023/09/10 14:01:09;;;;;;;7.85;6.07;;;;;;;;;;5028136;28;20284;-81
2023/09/10 14:03:37;;;;;;;6.20;5.60;;;;;;;;;;5030129;28;20623;-80
2023/09/10 14:06:08;;;;;;;6.10;5.50;;;;;;;;;;5029565;28;20203;-80
2023/09/10 14:08:37;;;;;;;6.10;5.50;;;;;;;;;;5012174;28;20202;-81
2023/09/10 14:11:05;;;;;;;6.10;5.57;;;;;;;;;;5028458;28;20313;-79
2023/09/10 14:13:33;;;;;;;7.63;5.57;;;;;;;;;;5030234;28;20640;-79
2023/09/10 14:16:00;;;;;;;7.07;6.10;;;;;;;;;;5030030;28;20823;-80
2023/09/10 14:18:28;;;;;;;6.63;5.97;;;;;;;;;;5029480;28;20700;-80
2023/09/10 14:20:56;;;;;;;7.55;6.15;;;;;;;;;;5029360;28;20519;-79
2023/09/10 14:23:27;;;;;;;7.05;6.38;;;;;;;;;;5029758;28;20219;-80
2023/09/10 14:25:56;;;;;;;8.40;7.13;;;;;;;;;;5028619;28;20198;-80
2023/09/10 14:28:24;;;;;;;6.88;6.28;;;;;;;;;;5027854;28;20598;-80
2023/09/10 14:30:52;;;;;;;10.30;9.02;;;;;;;;;;5030063;28;20226;-79
2023/09/10 14:33:23;;;;;;;9.90;8.95;;;;;;;;;;5009339;28;20210;-81
2023/09/10 14:35:52;;;;;;;10.45;9.45;;;;;;;;;;5029322;28;20203;-80
2023/09/10 14:38:20;;;;;;;6.78;6.18;;;;;;;;;;5013953;28;20230;-80
2023/09/10 14:40:48;;;;;;;6.80;6.20;;;;;;;;;;5033586;28;20233;-79